Time;durP1;ratioP1;P1;durP2;ratioP2;P2;SDS_P1;SDS_P2;PMS_P1;PMS_P2;Temp;Humidity;BMP_temperature;BMP_pressure;BME280_temperature;BME280_humidity;BME280_pressure;Samples;Min_cycle;Max_cycle;Signal;HPM_P1;HPM_P2
2021/12/07 00:01:20;;;;;;;8.82;4.03;;;;;;;0.79;91.88;98134.34;5030260;28;20029;-71
2021/12/07 00:03:46;;;;;;;6.35;3.88;;;;;;;0.84;91.82;98124.06;5021318;28;20435;-70
2021/12/07 00:06:11;;;;;;;9.65;4.30;;;;;;;0.75;93.49;98119.66;5030239;28;20032;-70
2021/12/07 00:08:39;;;;;;;7.53;4.15;;;;;;;0.75;94.19;98122.31;5032428;28;20119;-70
2021/12/07 00:11:05;;;;;;;6.13;3.75;;;;;;;0.68;93.97;98116.78;5041381;28;20028;-71
2021/12/07 00:13:35;;;;;;;8.30;3.60;;;;;;;0.56;93.49;98105.56;5023196;28;20033;-70
2021/12/07 00:16:01;;;;;;;7.20;4.10;;;;;;;0.69;94.57;98123.78;5033601;28;20422;-71
2021/12/07 00:18:26;;;;;;;6.88;3.88;;;;;;;0.68;94.86;98121.28;5029768;28;20075;-70
2021/12/07 00:20:52;;;;;;;7.00;3.80;;;;;;;0.64;94.91;98099.47;5030697;28;20021;-70
2021/12/07 00:23:17;;;;;;;6.30;4.10;;;;;;;0.72;94.18;98102.19;5025221;28;20025;-70
2021/12/07 00:25:43;;;;;;;7.30;4.07;;;;;;;0.72;94.10;98106.66;5032734;28;20399;-71
2021/12/07 00:28:08;;;;;;;7.05;4.18;;;;;;;0.60;93.84;98080.34;5031129;28;20029;-70
2021/12/07 00:30:35;;;;;;;8.38;4.22;;;;;;;0.77;94.24;98115.03;5031940;28;20030;-71
2021/12/07 00:35:44;;;;;;;6.68;4.03;;;;;;;0.84;93.82;98116.06;5032045;28;20059;-71
2021/12/07 00:38:27;;;;;;;8.10;4.30;;;;;;;0.81;93.58;98097.72;5021679;28;20034;-71
2021/12/07 00:40:55;;;;;;;6.00;3.65;;;;;;;0.76;94.55;98092.88;5014590;28;20421;-71
2021/12/07 00:43:20;;;;;;;7.72;3.88;;;;;;;0.76;94.89;98116.84;5040926;28;20505;-71
2021/12/07 00:45:46;;;;;;;6.88;4.03;;;;;;;0.71;94.60;98113.81;5056536;28;20029;-71
2021/12/07 00:48:15;;;;;;;6.05;3.40;;;;;;;0.75;95.08;98109.84;5040131;28;20025;-71
2021/12/07 00:50:44;;;;;;;6.15;3.88;;;;;;;0.63;95.61;98109.28;5034736;28;20034;-71
2021/12/07 00:53:11;;;;;;;9.05;4.70;;;;;;;0.64;95.67;98102.13;5039036;28;20553;-71
2021/12/07 00:55:42;;;;;;;8.48;4.38;;;;;;;0.54;95.87;98088.09;5020382;28;20026;-71
2021/12/07 00:58:21;;;;;;;7.80;4.55;;;;;;;0.61;97.67;98113.94;5029738;28;20033;-70
2021/12/07 01:00:49;;;;;;;6.93;3.92;;;;;;;0.50;99.01;98114.19;5036264;28;20408;-70
2021/12/07 01:03:28;;;;;;;8.03;4.23;;;;;;;0.36;100.00;98134.22;5028583;28;20025;-71
2021/12/07 01:06:05;;;;;;;8.07;4.60;;;;;;;0.27;100.00;98123.69;5037472;28;20276;-71
2021/12/07 01:25:17;;;;;;;10.10;5.35;;;;;;;-0.06;100.00;98107.44;5035471;28;20422;-70
2021/12/07 01:27:44;;;;;;;9.30;5.30;;;;;;;-0.12;100.00;98090.28;5033884;28;20057;-70
2021/12/07 01:30:19;;;;;;;8.73;5.15;;;;;;;0.06;100.00;98113.38;5035034;28;20073;-70
2021/12/07 01:33:02;;;;;;;9.35;5.30;;;;;;;0.11;100.00;98098.63;5018788;28;20555;-70
2021/12/07 02:01:46;;;;;;;8.82;4.45;;;;;;;0.31;100.00;98120.53;5033081;28;20113;-71
2021/12/07 02:04:11;;;;;;;8.02;4.50;;;;;;;0.28;100.00;98109.38;5034085;28;20100;-71
2021/12/07 02:06:36;;;;;;;8.80;4.88;;;;;;;-0.02;100.00;98093.69;5032911;28;20029;-71
2021/12/07 02:09:05;;;;;;;6.72;4.10;;;;;;;-0.11;100.00;98094.59;5035068;28;20021;-69
2021/12/07 02:11:30;;;;;;;8.60;4.80;;;;;;;-0.25;100.00;98077.38;5032982;28;20075;-69
2021/12/07 02:16:22;;;;;;;10.60;5.32;;;;;;;-0.15;100.00;98113.69;5036330;28;20025;-69
2021/12/07 02:18:47;;;;;;;11.55;5.70;;;;;;;-0.14;100.00;98100.22;5039196;28;20033;-69
2021/12/07 02:21:22;;;;;;;11.95;6.07;;;;;;;-0.27;100.00;98092.63;5036015;28;20038;-69
2021/12/07 02:23:48;;;;;;;13.85;5.40;;;;;;;-0.26;100.00;98089.00;5038091;28;20026;-69
2021/12/07 02:26:14;;;;;;;10.05;5.85;;;;;;;-0.11;100.00;98094.59;5025116;28;20041;-69
2021/12/07 02:28:40;;;;;;;9.98;5.05;;;;;;;0.02;100.00;98131.44;5039401;28;20025;-70
2021/12/07 02:31:08;;;;;;;11.32;5.93;;;;;;;0.06;100.00;98124.00;5038315;28;20025;-70
2021/12/07 02:33:34;;;;;;;11.93;5.38;;;;;;;0.05;100.00;98119.66;5021578;28;20035;-69
2021/12/07 02:36:00;;;;;;;10.30;5.18;;;;;;;0.15;100.00;98128.41;5029922;28;20454;-70
2021/12/07 02:38:25;;;;;;;10.82;5.53;;;;;;;0.07;100.00;98107.88;5033968;28;20021;-70
2021/12/07 02:40:52;;;;;;;7.93;4.95;;;;;;;-0.06;100.00;98083.53;5035621;28;20033;-70
2021/12/07 02:43:17;;;;;;;9.25;4.80;;;;;;;0.23;100.00;98123.13;5037748;28;20415;-70
2021/12/07 02:45:43;;;;;;;10.52;4.47;;;;;;;0.10;100.00;98094.28;5037279;28;20029;-70
2021/12/07 02:48:09;;;;;;;11.13;4.43;;;;;;;0.31;100.00;98120.53;5027137;28;20033;-70
2021/12/07 02:50:35;;;;;;;8.98;4.95;;;;;;;0.34;100.00;98124.72;5018887;28;20029;-70
2021/12/07 02:53:00;;;;;;;8.95;4.28;;;;;;;0.38;100.00;98136.72;5017711;28;20036;-70
2021/12/07 02:55:26;;;;;;;7.53;4.07;;;;;;;0.42;100.00;98141.59;5016439;28;20029;-69
2021/12/07 02:57:52;;;;;;;7.57;4.25;;;;;;;0.41;100.00;98133.75;5024237;28;20032;-69
2021/12/07 03:00:23;;;;;;;9.98;4.45;;;;;;;0.42;100.00;98143.41;5031962;28;20033;-69
2021/12/07 03:02:58;;;;;;;10.57;4.95;;;;;;;0.41;100.00;98141.72;5013872;28;20053;-70
2021/12/07 03:26:52;;;;;;;11.20;4.47;;;;;;;0.47;100.00;98142.94;5053075;28;20040;-69
2021/12/07 03:29:17;;;;;;;6.80;4.07;;;;;;;0.57;100.00;98139.19;5051896;28;20029;-69
2021/12/07 03:31:43;;;;;;;7.65;3.85;;;;;;;0.53;100.00;98148.47;5054122;28;20536;-70
2021/12/07 03:34:09;;;;;;;11.93;4.85;;;;;;;0.55;100.00;98158.94;5057978;28;20039;-70
2021/12/07 03:36:34;;;;;;;8.23;4.10;;;;;;;0.60;100.00;98161.97;5065264;28;20037;-70
2021/12/07 03:39:00;;;;;;;10.27;4.82;;;;;;;0.64;100.00;98156.19;5052648;28;20098;-69
2021/12/07 03:41:26;;;;;;;7.03;3.75;;;;;;;0.68;100.00;98158.53;5052732;28;20033;-69
2021/12/07 03:43:52;;;;;;;8.98;3.78;;;;;;;0.74;100.00;98157.94;5053707;28;20039;-69
2021/12/07 03:46:18;;;;;;;5.53;3.30;;;;;;;0.81;100.00;98156.28;5051385;28;20053;-69
2021/12/07 03:48:44;;;;;;;11.63;3.70;;;;;;;0.85;100.00;98163.00;5052676;28;20104;-69
2021/12/07 03:51:10;;;;;;;6.30;3.38;;;;;;;0.85;100.00;98149.69;5036699;28;20470;-69
2021/12/07 03:53:36;;;;;;;6.43;3.15;;;;;;;0.95;100.00;98158.38;5039644;28;20033;-69
2021/12/07 03:56:03;;;;;;;5.88;2.88;;;;;;;1.16;100.00;98170.50;5052684;28;20033;-70
2021/12/07 03:58:29;;;;;;;4.03;2.10;;;;;;;1.23;100.00;98168.84;5051505;28;20043;-69
2021/12/07 04:00:54;;;;;;;4.30;2.15;;;;;;;1.26;100.00;98168.53;5052373;28;20029;-69
2021/12/07 04:03:20;;;;;;;4.22;2.00;;;;;;;1.31;100.00;98174.22;5061323;28;20027;-69
2021/12/07 04:05:54;;;;;;;4.65;1.65;;;;;;;1.31;100.00;98179.56;5051447;28;20031;-74
2021/12/07 04:08:23;;;;;;;3.20;1.67;;;;;;;1.41;100.00;98174.06;5054258;28;20490;-73
2021/12/07 04:10:50;;;;;;;4.53;2.25;;;;;;;1.46;100.00;98172.59;5045181;28;20025;-74
2021/12/07 04:13:15;;;;;;;3.63;1.40;;;;;;;1.48;100.00;98178.59;5044921;28;20025;-74
2021/12/07 04:15:40;;;;;;;2.42;1.30;;;;;;;1.43;100.00;98178.25;5052603;28;20036;-74
2021/12/07 04:18:06;;;;;;;1.80;1.10;;;;;;;1.52;100.00;98189.81;5041988;28;20024;-72
2021/12/07 04:20:32;;;;;;;2.75;1.35;;;;;;;1.54;100.00;98191.28;5058949;28;20120;-75
2021/12/07 04:22:57;;;;;;;3.08;1.60;;;;;;;1.48;100.00;98181.28;5065523;28;20028;-74
2021/12/07 04:25:23;;;;;;;4.68;1.20;;;;;;;1.54;100.00;98188.63;5067498;28;20048;-75
2021/12/07 04:27:50;;;;;;;1.67;1.10;;;;;;;1.73;100.00;98200.03;5043344;28;20048;-74
2021/12/07 04:30:39;;;;;;;3.85;1.20;;;;;;;1.81;100.00;98201.88;5046456;28;20025;-73
2021/12/07 04:33:07;;;;;;;1.98;0.70;;;;;;;1.72;100.00;98198.34;5045384;28;20037;-73
2021/12/07 04:35:33;;;;;;;1.35;0.77;;;;;;;1.74;100.00;98207.03;5051233;28;20056;-73
2021/12/07 04:37:59;;;;;;;2.97;0.80;;;;;;;1.74;100.00;98191.03;5052623;28;20497;-77
2021/12/07 04:40:28;;;;;;;1.65;0.95;;;;;;;1.72;100.00;98201.00;5056007;28;20056;-71
2021/12/07 04:42:54;;;;;;;;;;;;;;;1.82;100.00;98214.22;5051858;28;20036;-73
2021/12/07 04:45:34;;;;;;;3.95;1.00;;;;;;;1.70;100.00;98203.00;5049521;28;19913;-73
2021/12/07 04:48:25;;;;;;;1.40;1.08;;;;;;;1.78;100.00;98220.88;5039506;28;20020;-74
2021/12/07 04:59:07;;;;;;;2.20;0.80;;;;;;;1.57;100.00;98239.94;5048640;28;20036;-70
2021/12/07 05:01:34;;;;;;;1.58;1.02;;;;;;;1.48;100.00;98250.56;5038712;28;20037;-72
2021/12/07 05:04:06;;;;;;;1.77;1.00;;;;;;;1.41;100.00;98222.88;5048373;28;20028;-70
2021/12/07 05:06:33;;;;;;;5.03;1.02;;;;;;;1.46;100.00;98228.56;5050485;28;20025;-71
2021/12/07 05:09:08;;;;;;;3.65;1.20;;;;;;;1.58;100.00;98233.63;5045521;28;20020;-71
2021/12/07 05:16:43;;;;;;;2.33;1.17;;;;;;;1.61;100.00;98247.47;5048916;28;20025;-75
2021/12/07 05:24:50;;;;;;;2.33;0.82;;;;;;;1.74;100.00;98265.69;5053524;28;20078;-72
2021/12/07 05:37:58;;;;;;;2.20;1.25;;;;;;;1.90;100.00;98288.94;5074818;28;20461;-73
2021/12/07 05:40:33;;;;;;;3.08;1.00;;;;;;;1.89;100.00;98298.78;5047403;28;20482;-73
2021/12/07 05:43:00;;;;;;;1.98;1.02;;;;;;;1.94;100.00;98300.97;5048712;28;20506;-73
2021/12/07 05:45:33;;;;;;;2.65;1.10;;;;;;;1.83;100.00;98286.06;5048800;28;20065;-74
2021/12/07 05:47:59;;;;;;;4.20;1.30;;;;;;;1.94;100.00;98299.13;5042063;28;20056;-74
2021/12/07 05:50:28;;;;;;;4.03;1.42;;;;;;;1.85;100.00;98291.25;5050821;28;20415;-75
2021/12/07 05:52:54;;;;;;;8.30;1.38;;;;;;;1.92;100.00;98306.44;5049570;28;20029;-76
2021/12/07 05:55:20;;;;;;;2.92;1.27;;;;;;;1.92;100.00;98310.94;5048694;28;20036;-75
2021/12/07 05:57:45;;;;;;;3.35;1.20;;;;;;;1.97;100.00;98301.47;5054424;28;20029;-73
2021/12/07 06:00:17;;;;;;;7.47;1.50;;;;;;;2.07;100.00;98321.81;5053019;28;20032;-72
2021/12/07 06:02:42;;;;;;;5.55;1.92;;;;;;;2.04;100.00;98324.81;5054217;28;20028;-73
2021/12/07 06:05:09;;;;;;;4.50;1.60;;;;;;;1.99;100.00;98319.97;5054388;28;20020;-74
2021/12/07 06:07:34;;;;;;;6.30;1.65;;;;;;;2.07;100.00;98321.81;5050423;28;20053;-73
2021/12/07 06:09:59;;;;;;;2.97;1.42;;;;;;;2.07;100.00;98312.00;5057904;28;20061;-74
2021/12/07 06:12:25;;;;;;;2.63;1.40;;;;;;;2.05;100.00;98307.84;5051077;28;20421;-72
2021/12/07 06:14:54;;;;;;;2.92;1.48;;;;;;;2.20;100.00;98311.53;5053247;28;20667;-73
2021/12/07 06:17:20;;;;;;;6.40;1.60;;;;;;;2.26;100.00;98329.56;5051174;28;20056;-70
2021/12/07 06:19:45;;;;;;;3.05;1.17;;;;;;;2.16;100.00;98323.53;5054494;28;20391;-71
2021/12/07 06:22:10;;;;;;;3.33;1.50;;;;;;;2.07;100.00;98301.34;5055299;28;20517;-74
2021/12/07 06:24:36;;;;;;;5.38;1.20;;;;;;;2.18;100.00;98303.69;5049641;28;20386;-75
2021/12/07 06:27:01;;;;;;;7.63;1.00;;;;;;;2.35;100.00;98336.59;5052735;28;20166;-76
2021/12/07 06:29:27;;;;;;;6.70;1.42;;;;;;;2.23;100.00;98313.91;5053022;28;20479;-76
2021/12/07 06:31:53;;;;;;;4.00;1.08;;;;;;;2.25;100.00;98335.91;5053367;28;20382;-68
2021/12/07 06:34:19;;;;;;;4.15;1.30;;;;;;;2.20;100.00;98338.22;5051709;28;20415;-72
2021/12/07 06:36:44;;;;;;;5.43;1.67;;;;;;;2.14;100.00;98330.88;5057662;28;20036;-72
2021/12/07 06:39:10;;;;;;;2.88;1.15;;;;;;;2.13;100.00;98318.53;5057208;28;20021;-71
2021/12/07 06:41:36;;;;;;;6.10;1.45;;;;;;;2.26;100.00;98342.09;5057928;28;20137;-68
2021/12/07 06:44:01;;;;;;;4.43;1.10;;;;;;;2.18;100.00;98342.91;5057519;28;20168;-72
2021/12/07 06:46:27;;;;;;;3.85;1.60;;;;;;;2.07;100.00;98345.84;5053133;28;20033;-73
2021/12/07 06:48:52;;;;;;;5.60;1.50;;;;;;;2.07;100.00;98351.19;5051469;28;20020;-72
2021/12/07 06:51:18;;;;;;;7.95;1.55;;;;;;;2.14;100.00;98346.88;5052316;28;20433;-69
2021/12/07 06:53:43;;;;;;;3.95;1.00;;;;;;;1.92;100.00;98333.13;5053950;28;20033;-69
2021/12/07 06:56:09;;;;;;;5.60;1.65;;;;;;;1.97;100.00;98349.47;5060347;28;20502;-68
2021/12/07 06:58:35;;;;;;;3.55;1.45;;;;;;;1.97;100.00;98365.50;5055898;28;20033;-68
2021/12/07 07:01:05;;;;;;;8.00;1.30;;;;;;;2.01;100.00;98365.16;5050214;28;20112;-68
2021/12/07 07:03:30;;;;;;;5.72;1.10;;;;;;;2.04;100.00;98364.84;5054796;28;20028;-68
2021/12/07 07:05:55;;;;;;;2.67;1.15;;;;;;;2.07;100.00;98377.84;5053796;28;20086;-69
2021/12/07 07:08:21;;;;;;;3.75;1.15;;;;;;;2.01;100.00;98382.00;5043390;28;20023;-68
2021/12/07 07:10:46;;;;;;;4.75;1.20;;;;;;;1.92;100.00;98362.47;5052789;28;20068;-72
2021/12/07 07:13:14;;;;;;;4.97;1.45;;;;;;;2.02;100.00;98380.16;5061137;28;20103;-70
2021/12/07 07:15:40;;;;;;;7.47;1.70;;;;;;;2.07;100.00;98386.72;5045651;28;20074;-73
2021/12/07 07:18:05;;;;;;;6.50;1.40;;;;;;;2.20;100.00;98404.94;5062404;28;20029;-70
2021/12/07 07:20:31;;;;;;;5.63;1.55;;;;;;;2.22;100.00;98394.94;5052467;28;20021;-71
2021/12/07 07:22:56;;;;;;;5.43;1.60;;;;;;;2.29;100.00;98419.16;5052187;28;20024;-70
2021/12/07 07:25:22;;;;;;;9.10;1.88;;;;;;;2.28;100.00;98418.34;5045897;28;20087;-69
2021/12/07 07:27:48;;;;;;;5.20;1.33;;;;;;;2.29;100.00;98413.84;5051206;28;20524;-71
2021/12/07 07:30:16;;;;;;;5.82;1.40;;;;;;;2.36;100.00;98413.03;5052026;28;20505;-71
2021/12/07 07:32:42;;;;;;;2.50;0.83;;;;;;;2.40;100.00;98414.38;5059956;28;20033;-71
2021/12/07 07:35:09;;;;;;;2.28;1.13;;;;;;;2.47;100.00;98413.75;5043775;28;20749;-71
2021/12/07 07:37:35;;;;;;;2.10;1.05;;;;;;;2.27;100.00;98375.78;5047473;28;20060;-71
2021/12/07 07:40:02;;;;;;;7.22;1.20;;;;;;;2.46;100.00;98396.88;5050664;28;20029;-72
2021/12/07 07:42:27;;;;;;;3.70;1.30;;;;;;;2.51;100.00;98404.41;5050542;28;20047;-73
2021/12/07 07:44:52;;;;;;;1.60;0.93;;;;;;;2.53;100.00;98410.41;5065459;28;20021;-71
2021/12/07 07:47:18;;;;;;;2.15;0.90;;;;;;;2.54;100.00;98412.94;5055177;28;20036;-71
2021/12/07 07:49:43;;;;;;;8.05;1.10;;;;;;;2.55;100.00;98421.78;5052288;28;20100;-71
2021/12/07 07:52:09;;;;;;;2.83;1.10;;;;;;;2.68;100.00;98407.97;5032756;28;20025;-69
2021/12/07 07:54:34;;;;;;;8.13;1.63;;;;;;;2.71;100.00;98400.44;5054874;28;20021;-71
2021/12/07 07:56:59;;;;;;;8.13;1.70;;;;;;;2.74;99.80;98404.63;5049078;28;20025;-70
2021/12/07 07:59:25;;;;;;;4.53;1.30;;;;;;;3.00;98.98;98416.03;5050232;28;20058;-72
2021/12/07 08:01:50;;;;;;;9.70;1.67;;;;;;;3.24;97.42;98433.94;5060540;28;20021;-72
2021/12/07 08:04:16;;;;;;;3.53;1.05;;;;;;;3.39;96.82;98434.13;5047801;28;20114;-70
2021/12/07 08:06:41;;;;;;;5.25;1.40;;;;;;;3.28;96.88;98432.63;5047065;28;20021;-71
2021/12/07 08:09:08;;;;;;;4.07;1.33;;;;;;;3.38;97.27;98436.94;5044348;28;20043;-71
2021/12/07 08:11:34;;;;;;;7.05;1.45;;;;;;;3.63;96.03;98435.13;5052557;28;20083;-71
2021/12/07 08:14:00;;;;;;;7.93;1.20;;;;;;;3.65;94.86;98439.31;5050204;28;20036;-71
2021/12/07 08:16:26;;;;;;;4.22;1.35;;;;;;;3.71;94.06;98446.66;5043841;28;20037;-73
2021/12/07 08:18:53;;;;;;;7.35;1.40;;;;;;;3.71;95.02;98440.47;5058060;28;20033;-72
2021/12/07 08:21:19;;;;;;;6.22;1.58;;;;;;;3.51;95.05;98456.00;5052471;28;20067;-68
2021/12/07 08:23:45;;;;;;;4.93;1.80;;;;;;;3.43;96.07;98458.69;5052466;28;20068;-69
2021/12/07 08:26:14;;;;;;;5.45;2.15;;;;;;;3.52;96.45;98455.03;5050438;28;20020;-71
2021/12/07 08:28:39;;;;;;;12.02;1.30;;;;;;;3.45;95.50;98452.16;5054779;28;20793;-71
2021/12/07 08:31:05;;;;;;;8.73;1.35;;;;;;;3.42;95.37;98457.84;5060537;28;20043;-70
2021/12/07 08:33:31;;;;;;;6.28;1.20;;;;;;;3.51;95.46;98467.56;5051158;28;20083;-73
2021/12/07 08:35:57;;;;;;;8.35;1.42;;;;;;;3.58;95.10;98454.34;5061835;28;20032;-73
2021/12/07 08:38:22;;;;;;;12.05;1.27;;;;;;;3.57;94.57;98462.56;5052510;28;20021;-72
2021/12/07 08:40:53;;;;;;;7.90;1.50;;;;;;;3.43;95.65;98466.72;5046091;28;20075;-68
2021/12/07 08:43:21;;;;;;;5.60;1.35;;;;;;;3.39;94.77;98466.22;5052211;28;20063;-68
2021/12/07 08:45:47;;;;;;;12.00;1.67;;;;;;;3.45;94.13;98456.69;5036963;28;20028;-71
2021/12/07 08:48:13;;;;;;;3.70;1.10;;;;;;;3.47;93.61;98454.69;5056910;28;20155;-71
2021/12/07 08:50:41;;;;;;;9.18;1.40;;;;;;;3.57;93.81;98454.53;5075444;28;20037;-72
2021/12/07 08:53:10;;;;;;;5.25;0.93;;;;;;;3.40;92.40;98440.31;5076497;28;20097;-71
2021/12/07 09:01:06;;;;;;;6.47;1.10;;;;;;;3.76;91.04;98488.13;5069106;28;20029;-71
2021/12/07 09:03:32;;;;;;;5.05;1.13;;;;;;;3.87;90.45;98482.44;5065958;28;20025;-67
2021/12/07 09:05:57;;;;;;;3.80;1.08;;;;;;;3.69;91.18;98463.88;5055768;28;20063;-70
2021/12/07 09:08:23;;;;;;;8.55;1.42;;;;;;;3.92;90.20;98482.75;5049286;28;20032;-69
2021/12/07 09:10:50;;;;;;;6.38;1.20;;;;;;;3.87;89.88;98475.22;5054045;28;20060;-70
2021/12/07 09:13:15;;;;;;;7.15;1.05;;;;;;;3.93;89.82;98479.09;5040050;28;20036;-70
2021/12/07 09:15:40;;;;;;;13.65;1.92;;;;;;;4.01;88.75;98473.72;5052989;28;20078;-69
2021/12/07 09:18:06;;;;;;;6.30;1.75;;;;;;;4.12;88.69;98476.03;5050985;28;20059;-69
2021/12/07 09:20:32;;;;;;;3.95;1.10;;;;;;;4.10;88.18;98479.91;5068503;22;20049;-72
2021/12/07 09:22:58;;;;;;;7.25;1.25;;;;;;;3.72;88.37;98453.69;5033753;28;20636;-71
2021/12/07 09:25:24;;;;;;;10.20;1.77;;;;;;;3.75;88.80;98476.59;5022805;28;20029;-71
2021/12/07 09:27:50;;;;;;;8.57;1.55;;;;;;;3.55;89.46;98473.41;5035825;28;20029;-71
2021/12/07 09:30:17;;;;;;;9.40;1.35;;;;;;;3.53;88.71;98445.97;5035117;28;20025;-73
2021/12/07 09:32:44;;;;;;;13.20;1.38;;;;;;;3.90;88.41;98504.34;5017380;28;20037;-73
2021/12/07 09:35:11;;;;;;;5.47;1.42;;;;;;;3.92;88.62;98501.50;5022950;28;20025;-72
2021/12/07 09:37:36;;;;;;;3.03;0.88;;;;;;;3.92;89.07;98506.84;5041550;28;20040;-70
2021/12/07 09:40:09;;;;;;;3.17;1.13;;;;;;;3.85;87.86;98505.84;5023169;28;20577;-70
2021/12/07 09:42:34;;;;;;;5.53;1.00;;;;;;;4.00;88.28;98506.84;5051407;28;20041;-70
2021/12/07 09:45:00;;;;;;;6.47;1.20;;;;;;;3.89;88.47;98485.78;5015798;28;20044;-71
2021/12/07 09:47:26;;;;;;;7.65;2.03;;;;;;;4.01;87.42;98500.50;5015209;28;20018;-72
2021/12/07 09:49:51;;;;;;;6.68;1.45;;;;;;;3.81;87.59;98464.38;5015509;28;20052;-72
2021/12/07 09:52:16;;;;;;;14.55;1.40;;;;;;;3.86;86.40;98480.78;5036921;28;20470;-72
2021/12/07 09:54:42;;;;;;;5.38;1.20;;;;;;;4.29;86.97;98503.59;5034044;28;20049;-71
2021/12/07 09:57:07;;;;;;;6.57;1.40;;;;;;;4.50;84.89;98473.59;5043710;28;20040;-72
2021/12/07 09:59:33;;;;;;;6.82;1.15;;;;;;;4.82;81.57;98491.41;5045700;28;20040;-70
2021/12/07 10:01:58;;;;;;;7.03;0.90;;;;;;;4.90;80.46;98466.41;5033520;28;20641;-69
2021/12/07 10:04:27;;;;;;;8.48;1.30;;;;;;;5.28;79.59;98498.69;5017461;28;20147;-70
2021/12/07 10:06:54;;;;;;;3.38;0.88;;;;;;;5.16;79.76;98459.88;5036460;28;20029;-68
2021/12/07 10:09:20;;;;;;;7.18;1.10;;;;;;;5.13;78.87;98463.75;5024238;28;20025;-76
2021/12/07 10:11:49;;;;;;;11.73;1.67;;;;;;;5.18;79.92;98482.81;5028432;28;20033;-78
2021/12/07 10:14:14;;;;;;;9.10;1.90;;;;;;;4.70;80.20;98431.16;5038929;28;20053;-72
2021/12/07 10:16:48;;;;;;;13.43;3.55;;;;;;;4.84;81.91;98491.22;5030560;28;20061;-73
2021/12/07 10:19:34;;;;;;;7.40;2.08;;;;;;;4.59;81.94;98427.00;5021787;28;20183;-76
2021/12/07 10:22:13;;;;;;;8.57;1.38;;;;;;;4.79;80.56;98459.59;5032900;28;20498;-74
2021/12/07 10:24:49;;;;;;;6.20;1.70;;;;;;;4.70;81.08;98463.31;5014362;28;20029;-77
2021/12/07 10:27:36;;;;;;;9.07;1.50;;;;;;;4.78;81.24;98502.63;5022186;28;20034;-79
2021/12/07 10:30:09;;;;;;;8.98;1.92;;;;;;;4.89;81.70;98512.97;5015742;28;20379;-75
2021/12/07 10:32:39;;;;;;;6.88;1.10;;;;;;;4.87;81.01;98461.38;5028671;28;20139;-72
2021/12/07 10:35:29;;;;;;;7.18;1.50;;;;;;;5.20;79.20;98498.75;5011040;28;20021;-72
2021/12/07 10:38:11;;;;;;;10.43;1.50;;;;;;;5.61;78.25;98485.91;5027449;28;20498;-73
2021/12/07 10:40:54;;;;;;;7.28;1.88;;;;;;;6.01;76.06;98472.34;5013507;28;20080;-73
2021/12/07 10:44:01;;;;;;;24.33;2.55;;;;;;;7.01;72.10;98480.75;5010922;28;20108;-74
2021/12/07 10:46:45;;;;;;;8.02;1.30;;;;;;;7.74;64.57;98469.13;5034482;28;20064;-72
2021/12/07 10:49:13;;;;;;;8.88;1.20;;;;;;;7.85;62.76;98460.50;5013956;28;20014;-73
2021/12/07 10:51:40;;;;;;;4.88;1.00;;;;;;;7.64;63.33;98443.34;5013797;28;20066;-73
2021/12/07 10:54:06;;;;;;;5.22;0.95;;;;;;;7.04;65.53;98452.66;5030037;28;20104;-72
2021/12/07 10:56:34;;;;;;;6.32;1.00;;;;;;;6.47;67.76;98431.88;5033253;28;20029;-72
2021/12/07 10:59:07;;;;;;;4.65;1.00;;;;;;;5.80;69.19;98444.28;5014735;28;20025;-72
2021/12/07 11:01:37;;;;;;;2.97;0.80;;;;;;;5.63;70.04;98437.38;5022351;28;20037;-72
2021/12/07 11:04:29;;;;;;;4.68;1.17;;;;;;;5.82;69.14;98444.13;5032755;28;20406;-72
2021/12/07 11:07:21;;;;;;;7.03;0.90;;;;;;;6.60;67.28;98434.72;5015686;28;20029;-70
2021/12/07 11:10:04;;;;;;;4.22;1.35;;;;;;;7.27;65.65;98441.72;5013334;28;20034;-72
2021/12/07 11:12:38;;;;;;;4.20;1.17;;;;;;;6.94;65.35;98420.69;5010988;28;20041;-70
2021/12/07 11:15:12;;;;;;;7.72;0.82;;;;;;;6.62;65.35;98429.19;5010712;28;20041;-71
2021/12/07 11:17:37;;;;;;;4.93;0.90;;;;;;;6.17;67.47;98418.44;5008182;28;20483;-70
2021/12/07 11:20:04;;;;;;;9.35;0.90;;;;;;;6.32;65.62;98415.78;5029613;28;20060;-70
2021/12/07 11:22:33;;;;;;;5.47;1.05;;;;;;;8.51;61.07;98412.50;5017033;28;20533;-69
2021/12/07 11:25:02;;;;;;;7.50;1.20;;;;;;;9.09;57.14;98409.41;5028433;28;20055;-69
2021/12/07 11:30:26;;;;;;;9.55;1.27;;;;;;;10.25;52.87;98406.31;5036365;28;20052;-69
2021/12/07 11:32:55;;;;;;;4.15;1.00;;;;;;;8.64;54.68;98400.91;5017956;28;20557;-69
2021/12/07 11:35:26;;;;;;;;;;;;;;;7.01;60.55;98410.81;5050093;28;20043;-69
2021/12/07 11:37:57;;;;;;;5.15;1.38;;;;;;;8.92;57.42;98411.63;5041807;28;19982;-69
2021/12/07 11:40:32;;;;;;;6.78;1.10;;;;;;;8.01;57.63;98394.72;5027232;28;20645;-69
2021/12/07 11:42:58;;;;;;;3.90;0.98;;;;;;;7.55;59.29;98397.91;5027566;28;20559;-69
2021/12/07 11:45:29;;;;;;;7.22;1.10;;;;;;;6.48;63.70;98404.81;5023786;28;20021;-69
2021/12/07 11:48:00;;;;;;;6.55;1.00;;;;;;;6.48;65.33;98406.69;5011235;28;20029;-69
2021/12/07 11:50:29;;;;;;;4.43;1.02;;;;;;;6.03;66.16;98406.69;5028711;28;20025;-69
2021/12/07 11:52:58;;;;;;;3.97;1.13;;;;;;;6.78;63.77;98399.38;5029410;28;20037;-69
2021/12/07 11:55:24;;;;;;;3.63;0.80;;;;;;;7.29;62.40;98402.03;5027985;28;20025;-69
2021/12/07 11:57:50;;;;;;;4.78;0.90;;;;;;;8.01;60.36;98395.56;5022967;28;20140;-69
2021/12/07 12:00:34;;;;;;;4.72;0.98;;;;;;;9.12;55.11;98391.97;5027410;28;20486;-69
2021/12/07 12:03:07;;;;;;;6.18;0.93;;;;;;;10.97;51.50;98377.34;5028510;28;20426;-73
2021/12/07 12:05:35;;;;;;;8.02;1.30;;;;;;;11.81;48.50;98374.50;5012434;28;20125;-71
2021/12/07 12:08:04;;;;;;;6.55;1.05;;;;;;;12.06;48.00;98371.81;5012467;28;20029;-71
2021/12/07 12:10:30;;;;;;;10.35;1.00;;;;;;;12.86;47.05;98374.44;5029837;28;20100;-72
2021/12/07 12:13:07;;;;;;;4.22;0.90;;;;;;;12.24;47.62;98376.41;5031032;28;20124;-71
2021/12/07 12:15:45;;;;;;;5.97;1.30;;;;;;;10.31;50.86;98381.16;5035800;28;20025;-71
2021/12/07 12:18:34;;;;;;;8.38;1.25;;;;;;;11.32;49.92;98362.59;5032494;28;20037;-70
2021/12/07 12:21:37;;;;;;;4.82;1.20;;;;;;;10.50;50.84;98365.09;5036962;28;20024;-69
2021/12/07 12:24:14;;;;;;;4.45;1.25;;;;;;;10.75;51.98;98354.38;5031957;28;20025;-69
2021/12/07 12:26:39;;;;;;;6.70;1.90;;;;;;;10.10;52.49;98352.47;5030453;28;20087;-66
2021/12/07 12:29:24;;;;;;;6.30;1.30;;;;;;;8.49;54.56;98330.16;5031500;28;20022;-71
2021/12/07 12:31:53;;;;;;;4.68;0.90;;;;;;;8.92;52.90;98317.19;5027250;28;20072;-69
2021/12/07 12:34:22;;;;;;;7.35;1.00;;;;;;;10.53;49.85;98318.66;5031405;28;20423;-72
2021/12/07 12:37:06;;;;;;;;;;;;;;;11.99;45.56;98328.47;5018597;28;20037;-71
2021/12/07 12:39:43;;;;;;;2.78;0.63;;;;;;;10.53;47.85;98324.06;5027238;28;19917;-71
2021/12/07 12:42:11;;;;;;;6.28;0.80;;;;;;;9.84;48.58;98304.72;5038923;28;20040;-74
2021/12/07 12:44:37;;;;;;;2.33;0.57;;;;;;;9.24;50.49;98309.34;5036164;28;20025;-75
2021/12/07 12:47:05;;;;;;;4.55;0.82;;;;;;;8.00;52.56;98286.16;5030589;28;20029;-73
2021/12/07 12:49:37;;;;;;;4.47;0.90;;;;;;;7.43;55.25;98284.56;5001787;28;20032;-74
2021/12/07 12:52:03;;;;;;;3.42;0.90;;;;;;;7.29;56.09;98291.69;5008405;28;20399;-74
2021/12/07 12:54:38;;;;;;;3.97;0.90;;;;;;;6.59;57.38;98282.56;5010919;28;20025;-70
2021/12/07 12:57:09;;;;;;;5.00;1.08;;;;;;;6.85;57.27;98316.13;5041346;28;20560;-69
2021/12/07 12:59:41;;;;;;;3.67;0.90;;;;;;;6.87;56.99;98314.09;5023538;28;20120;-73
2021/12/07 13:02:07;;;;;;;1.48;0.57;;;;;;;6.75;56.30;98276.09;5028753;28;20021;-73
2021/12/07 13:04:34;;;;;;;5.53;0.80;;;;;;;6.69;55.92;98291.16;5011305;28;20033;-71
2021/12/07 13:09:39;;;;;;;5.72;1.20;;;;;;;7.63;55.72;98312.44;5030863;28;20104;-70
2021/12/07 13:12:23;;;;;;;3.33;1.42;;;;;;;7.73;54.39;98303.16;5033208;28;20394;-73
2021/12/07 13:14:57;;;;;;;2.05;0.77;;;;;;;8.28;51.12;98317.59;5011822;28;20390;-70
2021/12/07 13:17:25;;;;;;;3.90;1.38;;;;;;;9.55;48.43;98307.88;5032068;28;20471;-72
2021/12/07 13:20:00;;;;;;;5.55;2.08;;;;;;;11.57;44.92;98306.53;5021153;28;20487;-71
2021/12/07 13:22:34;;;;;;;5.10;1.50;;;;;;;12.23;43.38;98277.94;5008443;28;20109;-70
2021/12/07 13:25:14;;;;;;;5.53;1.30;;;;;;;12.96;42.44;98276.13;5023864;28;20423;-71
2021/12/07 13:28:15;;;;;;;5.50;1.10;;;;;;;13.58;40.57;98286.69;5007566;28;20056;-73
2021/12/07 13:30:55;;;;;;;6.13;1.15;;;;;;;13.14;40.27;98286.94;5027030;28;20082;-72
2021/12/07 13:33:35;;;;;;;4.57;0.93;;;;;;;10.17;44.78;98293.00;5011802;28;21124;-68
2021/12/07 13:36:21;;;;;;;8.02;1.98;;;;;;;9.26;46.41;98276.75;5024288;28;20017;-71